HRR weather

Herrera Airport
CampiƱa, Tolima Department, Colombia

Public forecast

Using degrees Celsius for public forecast. Weather courtesy of forecast.io.

Closest aviation weather report (METAR) to Herrera Airport

Closest report is Benito Salas Airport, 37.0 nm (68.5 km) ESE. Retrieved 2019/10/18 00:00 UTC (22 minutes ago):

SKNV 180000Z VRB02KT 9999 FEW045 32/18 A2976 RMK LTNG/W

Closest aviation forecast (TAF) to Herrera Airport

Closest forecast is Alfonso Bonilla Aragon International Airport, 37.4 nm (69.3 km) WNW. Retrieved 2019-10-18 00:43 UTC (0 seconds ago):

TAF SKCL 172230Z 1800/1824 VRB02KT 9999 SCT020 SCT090 TEMPO 1800/1802 6000 DZRA SCT018CB TEMPO 1809/1812 4000 BR DZ SCT012 BECMG 1812/1814 32008KT TEMPO 1820/1823 6000 RA SCT018CB TX30/1819Z TN18/1811Z